sensor_id;sensor_type;location;lat;lon;timestamp;P1;P2;P0
73623;PMS5003;61921;53.226;-1.296;2023-09-12T00:02:04;18;17;
73623;PMS5003;61921;53.226;-1.296;2023-09-12T00:04:29;14;11;
73623;PMS5003;61921;53.226;-1.296;2023-09-12T00:06:54;8;8;
73623;PMS5003;61921;53.226;-1.296;2023-09-12T00:09:20;7;5;
73623;PMS5003;61921;53.226;-1.296;2023-09-12T00:11:45;7;7;
73623;PMS5003;61921;53.226;-1.296;2023-09-12T00:14:10;8;7;
73623;PMS5003;61921;53.226;-1.296;2023-09-12T00:16:35;6;5;
73623;PMS5003;61921;53.226;-1.296;2023-09-12T00:19:00;8;7;
73623;PMS5003;61921;53.226;-1.296;2023-09-12T00:21:26;6;5;
73623;PMS5003;61921;53.226;-1.296;2023-09-12T00:23:51;8;8;
73623;PMS5003;61921;53.226;-1.296;2023-09-12T00:26:16;9;9;
73623;PMS5003;61921;53.226;-1.296;2023-09-12T00:28:41;9;8;
73623;PMS5003;61921;53.226;-1.296;2023-09-12T00:31:07;8;7;
73623;PMS5003;61921;53.226;-1.296;2023-09-12T00:33:32;9;8;
73623;PMS5003;61921;53.226;-1.296;2023-09-12T00:35:57;10;10;
73623;PMS5003;61921;53.226;-1.296;2023-09-12T00:38:22;9;9;
73623;PMS5003;61921;53.226;-1.296;2023-09-12T00:40:47;9;9;
73623;PMS5003;61921;53.226;-1.296;2023-09-12T00:43:12;8;8;
73623;PMS5003;61921;53.226;-1.296;2023-09-12T00:45:38;9;9;
73623;PMS5003;61921;53.226;-1.296;2023-09-12T00:48:03;12;11;
73623;PMS5003;61921;53.226;-1.296;2023-09-12T00:50:28;11;11;
73623;PMS5003;61921;53.226;-1.296;2023-09-12T00:52:54;10;8;
73623;PMS5003;61921;53.226;-1.296;2023-09-12T00:55:19;9;9;
73623;PMS5003;61921;53.226;-1.296;2023-09-12T00:57:44;8;8;
73623;PMS5003;61921;53.226;-1.296;2023-09-12T01:00:11;8;8;
73623;PMS5003;61921;53.226;-1.296;2023-09-12T01:02:34;10;8;
73623;PMS5003;61921;53.226;-1.296;2023-09-12T01:04:59;10;10;
73623;PMS5003;61921;53.226;-1.296;2023-09-12T01:07:25;12;10;
73623;PMS5003;61921;53.226;-1.296;2023-09-12T01:09:50;12;10;
73623;PMS5003;61921;53.226;-1.296;2023-09-12T01:12:15;12;12;
73623;PMS5003;61921;53.226;-1.296;2023-09-12T01:14:41;13;13;
73623;PMS5003;61921;53.226;-1.296;2023-09-12T01:17:06;12;12;
73623;PMS5003;61921;53.226;-1.296;2023-09-12T01:19:32;15;15;
73623;PMS5003;61921;53.226;-1.296;2023-09-12T01:26:49;15;15;
73623;PMS5003;61921;53.226;-1.296;2023-09-12T01:29:13;13;12;
73623;PMS5003;61921;53.226;-1.296;2023-09-12T01:31:39;17;16;
73623;PMS5003;61921;53.226;-1.296;2023-09-12T01:34:08;14;13;
73623;PMS5003;61921;53.226;-1.296;2023-09-12T01:36:29;16;16;
73623;PMS5003;61921;53.226;-1.296;2023-09-12T01:38:55;18;17;
73623;PMS5003;61921;53.226;-1.296;2023-09-12T01:41:20;15;15;
73623;PMS5003;61921;53.226;-1.296;2023-09-12T01:43:46;18;17;
73623;PMS5003;61921;53.226;-1.296;2023-09-12T01:46:11;21;21;
73623;PMS5003;61921;53.226;-1.296;2023-09-12T01:48:36;19;17;
73623;PMS5003;61921;53.226;-1.296;2023-09-12T01:51:02;20;17;
73623;PMS5003;61921;53.226;-1.296;2023-09-12T01:53:26;20;19;
73623;PMS5003;61921;53.226;-1.296;2023-09-12T01:55:52;18;17;
73623;PMS5003;61921;53.226;-1.296;2023-09-12T01:58:17;19;19;
73623;PMS5003;61921;53.226;-1.296;2023-09-12T02:00:43;27;26;
73623;PMS5003;61921;53.226;-1.296;2023-09-12T02:03:08;20;20;
73623;PMS5003;61921;53.226;-1.296;2023-09-12T02:05:33;18;18;
73623;PMS5003;61921;53.226;-1.296;2023-09-12T02:07:59;22;21;
73623;PMS5003;61921;53.226;-1.296;2023-09-12T02:10:25;22;19;
73623;PMS5003;61921;53.226;-1.296;2023-09-12T02:12:49;16;15;
73623;PMS5003;61921;53.226;-1.296;2023-09-12T02:15:15;20;19;
73623;PMS5003;61921;53.226;-1.296;2023-09-12T02:17:41;27;27;
73623;PMS5003;61921;53.226;-1.296;2023-09-12T02:20:07;30;29;
73623;PMS5003;61921;53.226;-1.296;2023-09-12T02:22:31;35;33;
73623;PMS5003;61921;53.226;-1.296;2023-09-12T02:24:57;26;26;
73623;PMS5003;61921;53.226;-1.296;2023-09-12T02:27:22;26;26;
73623;PMS5003;61921;53.226;-1.296;2023-09-12T02:29:47;29;28;
73623;PMS5003;61921;53.226;-1.296;2023-09-12T02:32:13;33;31;
73623;PMS5003;61921;53.226;-1.296;2023-09-12T02:34:38;31;31;
73623;PMS5003;61921;53.226;-1.296;2023-09-12T02:37:04;30;29;
73623;PMS5003;61921;53.226;-1.296;2023-09-12T02:39:29;32;32;
73623;PMS5003;61921;53.226;-1.296;2023-09-12T02:41:54;29;28;
73623;PMS5003;61921;53.226;-1.296;2023-09-12T02:44:20;29;26;
73623;PMS5003;61921;53.226;-1.296;2023-09-12T02:46:46;23;23;
73623;PMS5003;61921;53.226;-1.296;2023-09-12T02:49:11;17;16;
73623;PMS5003;61921;53.226;-1.296;2023-09-12T02:51:37;19;14;
73623;PMS5003;61921;53.226;-1.296;2023-09-12T02:54:02;11;10;
73623;PMS5003;61921;53.226;-1.296;2023-09-12T02:56:29;9;8;
73623;PMS5003;61921;53.226;-1.296;2023-09-12T02:58:53;8;8;
73623;PMS5003;61921;53.226;-1.296;2023-09-12T03:01:18;7;7;
73623;PMS5003;61921;53.226;-1.296;2023-09-12T03:03:43;10;10;
73623;PMS5003;61921;53.226;-1.296;2023-09-12T03:06:08;9;9;
73623;PMS5003;61921;53.226;-1.296;2023-09-12T03:08:33;8;8;
73623;PMS5003;61921;53.226;-1.296;2023-09-12T03:10:58;8;8;
73623;PMS5003;61921;53.226;-1.296;2023-09-12T03:13:25;5;5;
73623;PMS5003;61921;53.226;-1.296;2023-09-12T03:15:50;8;7;
73623;PMS5003;61921;53.226;-1.296;2023-09-12T03:18:15;11;11;
73623;PMS5003;61921;53.226;-1.296;2023-09-12T03:20:41;7;6;
73623;PMS5003;61921;53.226;-1.296;2023-09-12T03:23:05;8;8;
73623;PMS5003;61921;53.226;-1.296;2023-09-12T03:25:35;5;5;
73623;PMS5003;61921;53.226;-1.296;2023-09-12T03:27:56;5;4;
73623;PMS5003;61921;53.226;-1.296;2023-09-12T03:30:21;3;3;
73623;PMS5003;61921;53.226;-1.296;2023-09-12T03:32:46;4;2;
73623;PMS5003;61921;53.226;-1.296;2023-09-12T03:35:11;3;3;
73623;PMS5003;61921;53.226;-1.296;2023-09-12T03:37:36;3;3;
73623;PMS5003;61921;53.226;-1.296;2023-09-12T03:40:02;4;2;
73623;PMS5003;61921;53.226;-1.296;2023-09-12T03:42:27;6;5;
73623;PMS5003;61921;53.226;-1.296;2023-09-12T03:44:52;6;5;
73623;PMS5003;61921;53.226;-1.296;2023-09-12T03:47:17;7;5;
73623;PMS5003;61921;53.226;-1.296;2023-09-12T03:49:42;7;6;
73623;PMS5003;61921;53.226;-1.296;2023-09-12T03:52:08;7;6;
73623;PMS5003;61921;53.226;-1.296;2023-09-12T03:54:33;9;7;
73623;PMS5003;61921;53.226;-1.296;2023-09-12T03:56:58;4;4;
73623;PMS5003;61921;53.226;-1.296;2023-09-12T03:59:24;11;8;
73623;PMS5003;61921;53.226;-1.296;2023-09-12T04:01:48;4;4;
73623;PMS5003;61921;53.226;-1.296;2023-09-12T04:04:13;5;5;
73623;PMS5003;61921;53.226;-1.296;2023-09-12T04:06:39;6;5;
73623;PMS5003;61921;53.226;-1.296;2023-09-12T04:09:04;5;5;
73623;PMS5003;61921;53.226;-1.296;2023-09-12T04:11:30;5;4;
73623;PMS5003;61921;53.226;-1.296;2023-09-12T04:13:55;6;5;
73623;PMS5003;61921;53.226;-1.296;2023-09-12T04:16:20;3;3;
73623;PMS5003;61921;53.226;-1.296;2023-09-12T04:18:46;3;3;
73623;PMS5003;61921;53.226;-1.296;2023-09-12T04:21:11;3;3;
73623;PMS5003;61921;53.226;-1.296;2023-09-12T04:23:36;5;4;
73623;PMS5003;61921;53.226;-1.296;2023-09-12T04:26:01;7;6;
73623;PMS5003;61921;53.226;-1.296;2023-09-12T04:28:26;4;4;
73623;PMS5003;61921;53.226;-1.296;2023-09-12T04:30:52;5;5;
73623;PMS5003;61921;53.226;-1.296;2023-09-12T04:33:17;13;9;
73623;PMS5003;61921;53.226;-1.296;2023-09-12T04:35:42;6;5;
73623;PMS5003;61921;53.226;-1.296;2023-09-12T04:38:07;6;6;
73623;PMS5003;61921;53.226;-1.296;2023-09-12T04:40:32;5;5;
73623;PMS5003;61921;53.226;-1.296;2023-09-12T04:42:58;7;4;
73623;PMS5003;61921;53.226;-1.296;2023-09-12T04:45:26;5;5;
73623;PMS5003;61921;53.226;-1.296;2023-09-12T04:47:48;4;4;
73623;PMS5003;61921;53.226;-1.296;2023-09-12T04:50:13;5;5;
73623;PMS5003;61921;53.226;-1.296;2023-09-12T04:52:38;4;4;
73623;PMS5003;61921;53.226;-1.296;2023-09-12T04:55:04;3;3;
73623;PMS5003;61921;53.226;-1.296;2023-09-12T04:57:29;3;3;
73623;PMS5003;61921;53.226;-1.296;2023-09-12T04:59:54;6;5;
73623;PMS5003;61921;53.226;-1.296;2023-09-12T05:02:19;4;4;
73623;PMS5003;61921;53.226;-1.296;2023-09-12T05:04:44;4;4;
73623;PMS5003;61921;53.226;-1.296;2023-09-12T05:07:09;4;4;
73623;PMS5003;61921;53.226;-1.296;2023-09-12T05:09:35;5;4;
73623;PMS5003;61921;53.226;-1.296;2023-09-12T05:12:00;3;3;
73623;PMS5003;61921;53.226;-1.296;2023-09-12T05:14:25;3;3;
73623;PMS5003;61921;53.226;-1.296;2023-09-12T05:16:50;3;3;
73623;PMS5003;61921;53.226;-1.296;2023-09-12T05:19:15;3;3;
73623;PMS5003;61921;53.226;-1.296;2023-09-12T05:21:41;2;2;
73623;PMS5003;61921;53.226;-1.296;2023-09-12T05:24:06;3;3;
73623;PMS5003;61921;53.226;-1.296;2023-09-12T05:26:31;2;2;
73623;PMS5003;61921;53.226;-1.296;2023-09-12T05:28:57;5;4;
73623;PMS5003;61921;53.226;-1.296;2023-09-12T05:31:22;6;4;
73623;PMS5003;61921;53.226;-1.296;2023-09-12T05:33:47;4;4;
73623;PMS5003;61921;53.226;-1.296;2023-09-12T05:36:12;3;3;
73623;PMS5003;61921;53.226;-1.296;2023-09-12T05:38:38;3;3;
73623;PMS5003;61921;53.226;-1.296;2023-09-12T05:41:03;4;4;
73623;PMS5003;61921;53.226;-1.296;2023-09-12T05:43:28;4;4;
73623;PMS5003;61921;53.226;-1.296;2023-09-12T05:45:53;3;3;
73623;PMS5003;61921;53.226;-1.296;2023-09-12T05:48:18;10;8;
73623;PMS5003;61921;53.226;-1.296;2023-09-12T05:50:45;7;7;
73623;PMS5003;61921;53.226;-1.296;2023-09-12T05:53:10;11;10;
73623;PMS5003;61921;53.226;-1.296;2023-09-12T05:55:35;17;16;
73623;PMS5003;61921;53.226;-1.296;2023-09-12T05:58:00;14;14;
73623;PMS5003;61921;53.226;-1.296;2023-09-12T06:00:27;15;13;
73623;PMS5003;61921;53.226;-1.296;2023-09-12T06:02:52;11;11;
73623;PMS5003;61921;53.226;-1.296;2023-09-12T06:05:17;11;11;
73623;PMS5003;61921;53.226;-1.296;2023-09-12T06:07:42;7;7;
73623;PMS5003;61921;53.226;-1.296;2023-09-12T06:10:08;5;4;
73623;PMS5003;61921;53.226;-1.296;2023-09-12T06:12:33;5;5;
73623;PMS5003;61921;53.226;-1.296;2023-09-12T06:14:58;3;3;
73623;PMS5003;61921;53.226;-1.296;2023-09-12T06:17:23;4;4;
73623;PMS5003;61921;53.226;-1.296;2023-09-12T06:19:49;4;4;
73623;PMS5003;61921;53.226;-1.296;2023-09-12T06:22:14;6;5;
73623;PMS5003;61921;53.226;-1.296;2023-09-12T06:24:39;5;4;
73623;PMS5003;61921;53.226;-1.296;2023-09-12T06:27:04;8;7;
73623;PMS5003;61921;53.226;-1.296;2023-09-12T06:29:29;4;4;
73623;PMS5003;61921;53.226;-1.296;2023-09-12T06:31:55;4;4;
73623;PMS5003;61921;53.226;-1.296;2023-09-12T06:34:20;5;5;
73623;PMS5003;61921;53.226;-1.296;2023-09-12T06:36:45;2;2;
73623;PMS5003;61921;53.226;-1.296;2023-09-12T06:39:11;5;3;
73623;PMS5003;61921;53.226;-1.296;2023-09-12T06:41:36;4;4;
73623;PMS5003;61921;53.226;-1.296;2023-09-12T06:44:01;6;6;
73623;PMS5003;61921;53.226;-1.296;2023-09-12T06:46:26;3;3;
73623;PMS5003;61921;53.226;-1.296;2023-09-12T06:48:52;4;4;
73623;PMS5003;61921;53.226;-1.296;2023-09-12T06:51:17;5;3;
73623;PMS5003;61921;53.226;-1.296;2023-09-12T06:53:42;2;2;
73623;PMS5003;61921;53.226;-1.296;2023-09-12T06:56:07;3;3;
73623;PMS5003;61921;53.226;-1.296;2023-09-12T06:58:32;3;3;
73623;PMS5003;61921;53.226;-1.296;2023-09-12T07:01:01;4;4;
73623;PMS5003;61921;53.226;-1.296;2023-09-12T07:03:23;5;4;
73623;PMS5003;61921;53.226;-1.296;2023-09-12T07:05:48;4;3;
73623;PMS5003;61921;53.226;-1.296;2023-09-12T07:08:13;5;5;
73623;PMS5003;61921;53.226;-1.296;2023-09-12T07:10:43;6;5;
73623;PMS5003;61921;53.226;-1.296;2023-09-12T07:13:04;3;3;
73623;PMS5003;61921;53.226;-1.296;2023-09-12T07:15:29;3;3;
73623;PMS5003;61921;53.226;-1.296;2023-09-12T07:17:54;3;3;
73623;PMS5003;61921;53.226;-1.296;2023-09-12T07:20:19;3;2;
73623;PMS5003;61921;53.226;-1.296;2023-09-12T07:22:45;1;1;
73623;PMS5003;61921;53.226;-1.296;2023-09-12T07:25:11;19;17;
73623;PMS5003;61921;53.226;-1.296;2023-09-12T07:27:36;2;2;
73623;PMS5003;61921;53.226;-1.296;2023-09-12T07:30:01;1;0;
73623;PMS5003;61921;53.226;-1.296;2023-09-12T07:32:27;1;1;
73623;PMS5003;61921;53.226;-1.296;2023-09-12T07:34:52;1;1;
73623;PMS5003;61921;53.226;-1.296;2023-09-12T07:37:17;0;0;
73623;PMS5003;61921;53.226;-1.296;2023-09-12T07:39:42;1;1;
73623;PMS5003;61921;53.226;-1.296;2023-09-12T07:42:07;1;1;
73623;PMS5003;61921;53.226;-1.296;2023-09-12T07:44:33;1;1;
73623;PMS5003;61921;53.226;-1.296;2023-09-12T07:46:58;1;1;
73623;PMS5003;61921;53.226;-1.296;2023-09-12T07:49:23;1;1;
73623;PMS5003;61921;53.226;-1.296;2023-09-12T07:51:48;1;1;
73623;PMS5003;61921;53.226;-1.296;2023-09-12T07:54:14;1;1;
73623;PMS5003;61921;53.226;-1.296;2023-09-12T07:56:39;4;4;
73623;PMS5003;61921;53.226;-1.296;2023-09-12T07:59:04;2;2;
73623;PMS5003;61921;53.226;-1.296;2023-09-12T08:01:29;1;1;
73623;PMS5003;61921;53.226;-1.296;2023-09-12T08:03:55;1;1;
73623;PMS5003;61921;53.226;-1.296;2023-09-12T08:06:20;2;2;
73623;PMS5003;61921;53.226;-1.296;2023-09-12T08:08:45;3;3;
73623;PMS5003;61921;53.226;-1.296;2023-09-12T08:11:10;3;3;
73623;PMS5003;61921;53.226;-1.296;2023-09-12T08:13:36;5;5;
73623;PMS5003;61921;53.226;-1.296;2023-09-12T08:16:01;5;3;
73623;PMS5003;61921;53.226;-1.296;2023-09-12T08:18:27;3;2;
73623;PMS5003;61921;53.226;-1.296;2023-09-12T08:20:51;4;4;
73623;PMS5003;61921;53.226;-1.296;2023-09-12T08:23:17;1;1;
73623;PMS5003;61921;53.226;-1.296;2023-09-12T08:25:42;3;2;
73623;PMS5003;61921;53.226;-1.296;2023-09-12T08:28:07;1;1;
73623;PMS5003;61921;53.226;-1.296;2023-09-12T08:30:32;1;1;
73623;PMS5003;61921;53.226;-1.296;2023-09-12T08:32:58;2;2;
73623;PMS5003;61921;53.226;-1.296;2023-09-12T08:35:23;0;0;
73623;PMS5003;61921;53.226;-1.296;2023-09-12T08:37:48;2;0;
73623;PMS5003;61921;53.226;-1.296;2023-09-12T08:40:14;2;2;
73623;PMS5003;61921;53.226;-1.296;2023-09-12T08:42:39;1;1;
73623;PMS5003;61921;53.226;-1.296;2023-09-12T08:45:04;2;2;
73623;PMS5003;61921;53.226;-1.296;2023-09-12T08:47:29;2;2;
73623;PMS5003;61921;53.226;-1.296;2023-09-12T08:49:55;3;1;
73623;PMS5003;61921;53.226;-1.296;2023-09-12T08:52:20;4;4;
73623;PMS5003;61921;53.226;-1.296;2023-09-12T08:54:45;1;1;
73623;PMS5003;61921;53.226;-1.296;2023-09-12T08:57:10;4;4;
73623;PMS5003;61921;53.226;-1.296;2023-09-12T08:59:36;4;4;
73623;PMS5003;61921;53.226;-1.296;2023-09-12T09:02:01;3;3;
73623;PMS5003;61921;53.226;-1.296;2023-09-12T09:04:26;4;4;
73623;PMS5003;61921;53.226;-1.296;2023-09-12T09:06:51;2;2;
73623;PMS5003;61921;53.226;-1.296;2023-09-12T09:09:16;1;1;
73623;PMS5003;61921;53.226;-1.296;2023-09-12T09:11:42;2;2;
73623;PMS5003;61921;53.226;-1.296;2023-09-12T09:14:07;3;3;
73623;PMS5003;61921;53.226;-1.296;2023-09-12T09:16:32;1;1;
73623;PMS5003;61921;53.226;-1.296;2023-09-12T09:18:58;2;2;
73623;PMS5003;61921;53.226;-1.296;2023-09-12T09:21:23;3;1;
73623;PMS5003;61921;53.226;-1.296;2023-09-12T09:23:48;2;2;
73623;PMS5003;61921;53.226;-1.296;2023-09-12T09:26:13;1;1;
73623;PMS5003;61921;53.226;-1.296;2023-09-12T09:28:38;1;1;
73623;PMS5003;61921;53.226;-1.296;2023-09-12T09:31:04;3;3;
73623;PMS5003;61921;53.226;-1.296;2023-09-12T09:33:29;3;2;
73623;PMS5003;61921;53.226;-1.296;2023-09-12T09:36:01;2;1;
73623;PMS5003;61921;53.226;-1.296;2023-09-12T09:38:20;2;2;
73623;PMS5003;61921;53.226;-1.296;2023-09-12T09:40:44;2;2;
73623;PMS5003;61921;53.226;-1.296;2023-09-12T09:43:10;1;1;
73623;PMS5003;61921;53.226;-1.296;2023-09-12T09:48:04;1;1;
73623;PMS5003;61921;53.226;-1.296;2023-09-12T09:50:26;3;2;
73623;PMS5003;61921;53.226;-1.296;2023-09-12T09:52:53;1;1;
73623;PMS5003;61921;53.226;-1.296;2023-09-12T09:55:16;1;1;
73623;PMS5003;61921;53.226;-1.296;2023-09-12T09:57:41;0;0;
73623;PMS5003;61921;53.226;-1.296;2023-09-12T10:00:07;1;1;
73623;PMS5003;61921;53.226;-1.296;2023-09-12T10:02:31;0;0;
73623;PMS5003;61921;53.226;-1.296;2023-09-12T10:04:57;2;2;
73623;PMS5003;61921;53.226;-1.296;2023-09-12T10:07:22;1;1;
73623;PMS5003;61921;53.226;-1.296;2023-09-12T10:09:47;2;1;
73623;PMS5003;61921;53.226;-1.296;2023-09-12T10:12:12;3;3;
73623;PMS5003;61921;53.226;-1.296;2023-09-12T10:14:38;1;1;
73623;PMS5003;61921;53.226;-1.296;2023-09-12T10:17:03;2;2;
73623;PMS5003;61921;53.226;-1.296;2023-09-12T10:19:30;1;1;
73623;PMS5003;61921;53.226;-1.296;2023-09-12T10:21:54;6;6;
73623;PMS5003;61921;53.226;-1.296;2023-09-12T10:24:19;3;3;
73623;PMS5003;61921;53.226;-1.296;2023-09-12T10:26:43;5;3;
73623;PMS5003;61921;53.226;-1.296;2023-09-12T10:29:09;4;4;
73623;PMS5003;61921;53.226;-1.296;2023-09-12T10:31:34;5;5;
73623;PMS5003;61921;53.226;-1.296;2023-09-12T10:33:59;6;4;
73623;PMS5003;61921;53.226;-1.296;2023-09-12T10:36:24;3;3;
73623;PMS5003;61921;53.226;-1.296;2023-09-12T10:38:50;5;5;
73623;PMS5003;61921;53.226;-1.296;2023-09-12T10:41:15;6;5;
73623;PMS5003;61921;53.226;-1.296;2023-09-12T10:43:40;5;5;
73623;PMS5003;61921;53.226;-1.296;2023-09-12T10:46:05;5;5;
73623;PMS5003;61921;53.226;-1.296;2023-09-12T10:48:31;4;2;
73623;PMS5003;61921;53.226;-1.296;2023-09-12T10:50:56;2;2;
73623;PMS5003;61921;53.226;-1.296;2023-09-12T10:53:22;3;3;
73623;PMS5003;61921;53.226;-1.296;2023-09-12T10:58:12;3;3;
73623;PMS5003;61921;53.226;-1.296;2023-09-12T11:00:37;4;3;
73623;PMS5003;61921;53.226;-1.296;2023-09-12T11:05:37;3;3;
73623;PMS5003;61921;53.226;-1.296;2023-09-12T11:07:55;3;3;
73623;PMS5003;61921;53.226;-1.296;2023-09-12T11:10:19;3;3;
73623;PMS5003;61921;53.226;-1.296;2023-09-12T11:12:43;4;4;
73623;PMS5003;61921;53.226;-1.296;2023-09-12T11:15:08;2;2;
73623;PMS5003;61921;53.226;-1.296;2023-09-12T11:17:37;3;3;
73623;PMS5003;61921;53.226;-1.296;2023-09-12T11:19:58;6;5;
73623;PMS5003;61921;53.226;-1.296;2023-09-12T11:22:24;4;4;
73623;PMS5003;61921;53.226;-1.296;2023-09-12T11:24:49;2;2;
73623;PMS5003;61921;53.226;-1.296;2023-09-12T11:27:14;1;1;
73623;PMS5003;61921;53.226;-1.296;2023-09-12T11:29:39;1;1;
73623;PMS5003;61921;53.226;-1.296;2023-09-12T11:32:05;3;3;
73623;PMS5003;61921;53.226;-1.296;2023-09-12T11:34:35;4;4;
73623;PMS5003;61921;53.226;-1.296;2023-09-12T11:36:55;2;2;
73623;PMS5003;61921;53.226;-1.296;2023-09-12T11:39:22;4;4;
73623;PMS5003;61921;53.226;-1.296;2023-09-12T11:41:46;2;2;
73623;PMS5003;61921;53.226;-1.296;2023-09-12T11:44:11;2;2;
73623;PMS5003;61921;53.226;-1.296;2023-09-12T11:46:36;1;1;
73623;PMS5003;61921;53.226;-1.296;2023-09-12T11:49:01;1;1;
73623;PMS5003;61921;53.226;-1.296;2023-09-12T11:51:27;1;1;
73623;PMS5003;61921;53.226;-1.296;2023-09-12T11:53:52;2;2;
73623;PMS5003;61921;53.226;-1.296;2023-09-12T11:56:17;1;1;
73623;PMS5003;61921;53.226;-1.296;2023-09-12T11:58:42;3;3;
73623;PMS5003;61921;53.226;-1.296;2023-09-12T12:01:07;2;2;
73623;PMS5003;61921;53.226;-1.296;2023-09-12T12:03:32;2;2;
73623;PMS5003;61921;53.226;-1.296;2023-09-12T12:05:58;2;2;
73623;PMS5003;61921;53.226;-1.296;2023-09-12T12:08:24;2;2;
73623;PMS5003;61921;53.226;-1.296;2023-09-12T12:10:49;2;2;
73623;PMS5003;61921;53.226;-1.296;2023-09-12T12:13:16;1;1;
73623;PMS5003;61921;53.226;-1.296;2023-09-12T12:15:38;2;1;
73623;PMS5003;61921;53.226;-1.296;2023-09-12T12:18:04;1;1;
73623;PMS5003;61921;53.226;-1.296;2023-09-12T12:20:29;2;2;
73623;PMS5003;61921;53.226;-1.296;2023-09-12T12:22:54;2;2;
73623;PMS5003;61921;53.226;-1.296;2023-09-12T12:25:19;1;1;
73623;PMS5003;61921;53.226;-1.296;2023-09-12T12:27:45;0;0;
73623;PMS5003;61921;53.226;-1.296;2023-09-12T12:30:11;1;0;
73623;PMS5003;61921;53.226;-1.296;2023-09-12T12:32:35;1;1;
73623;PMS5003;61921;53.226;-1.296;2023-09-12T12:35:00;1;1;
73623;PMS5003;61921;53.226;-1.296;2023-09-12T12:37:27;1;1;
73623;PMS5003;61921;53.226;-1.296;2023-09-12T12:39:51;1;1;
73623;PMS5003;61921;53.226;-1.296;2023-09-12T12:42:17;1;1;
73623;PMS5003;61921;53.226;-1.296;2023-09-12T12:44:42;2;1;
73623;PMS5003;61921;53.226;-1.296;2023-09-12T12:47:08;2;1;
73623;PMS5003;61921;53.226;-1.296;2023-09-12T12:49:35;1;1;
73623;PMS5003;61921;53.226;-1.296;2023-09-12T12:51:57;1;1;
73623;PMS5003;61921;53.226;-1.296;2023-09-12T12:54:22;2;2;
73623;PMS5003;61921;53.226;-1.296;2023-09-12T12:56:48;1;1;
73623;PMS5003;61921;53.226;-1.296;2023-09-12T12:59:13;2;2;
73623;PMS5003;61921;53.226;-1.296;2023-09-12T13:01:38;2;2;
73623;PMS5003;61921;53.226;-1.296;2023-09-12T13:04:04;2;2;
73623;PMS5003;61921;53.226;-1.296;2023-09-12T13:06:29;3;3;
73623;PMS5003;61921;53.226;-1.296;2023-09-12T13:08:54;0;0;
73623;PMS5003;61921;53.226;-1.296;2023-09-12T13:11:19;2;2;
73623;PMS5003;61921;53.226;-1.296;2023-09-12T13:13:44;3;3;
73623;PMS5003;61921;53.226;-1.296;2023-09-12T13:16:10;4;4;
73623;PMS5003;61921;53.226;-1.296;2023-09-12T13:18:35;3;3;
73623;PMS5003;61921;53.226;-1.296;2023-09-12T13:21:00;2;2;
73623;PMS5003;61921;53.226;-1.296;2023-09-12T13:23:25;3;3;
73623;PMS5003;61921;53.226;-1.296;2023-09-12T13:25:50;3;3;
73623;PMS5003;61921;53.226;-1.296;2023-09-12T13:28:16;3;3;
73623;PMS5003;61921;53.226;-1.296;2023-09-12T13:30:41;3;3;
73623;PMS5003;61921;53.226;-1.296;2023-09-12T13:33:06;4;4;
73623;PMS5003;61921;53.226;-1.296;2023-09-12T13:35:31;3;3;
73623;PMS5003;61921;53.226;-1.296;2023-09-12T13:37:56;4;4;
73623;PMS5003;61921;53.226;-1.296;2023-09-12T13:40:21;3;3;
73623;PMS5003;61921;53.226;-1.296;2023-09-12T13:42:47;5;3;
73623;PMS5003;61921;53.226;-1.296;2023-09-12T13:45:12;6;4;
73623;PMS5003;61921;53.226;-1.296;2023-09-12T13:47:37;5;3;
73623;PMS5003;61921;53.226;-1.296;2023-09-12T13:50:02;4;4;
73623;PMS5003;61921;53.226;-1.296;2023-09-12T13:52:28;10;9;
73623;PMS5003;61921;53.226;-1.296;2023-09-12T13:54:53;4;2;
73623;PMS5003;61921;53.226;-1.296;2023-09-12T13:57:19;4;4;
73623;PMS5003;61921;53.226;-1.296;2023-09-12T13:59:44;4;4;
73623;PMS5003;61921;53.226;-1.296;2023-09-12T14:02:09;3;3;
73623;PMS5003;61921;53.226;-1.296;2023-09-12T14:04:34;5;5;
73623;PMS5003;61921;53.226;-1.296;2023-09-12T14:07:00;6;5;
73623;PMS5003;61921;53.226;-1.296;2023-09-12T14:09:24;2;2;
73623;PMS5003;61921;53.226;-1.296;2023-09-12T14:11:50;4;3;
73623;PMS5003;61921;53.226;-1.296;2023-09-12T14:14:15;5;3;
73623;PMS5003;61921;53.226;-1.296;2023-09-12T14:16:40;4;4;
73623;PMS5003;61921;53.226;-1.296;2023-09-12T14:19:06;7;6;
73623;PMS5003;61921;53.226;-1.296;2023-09-12T14:21:30;5;4;
73623;PMS5003;61921;53.226;-1.296;2023-09-12T14:23:56;6;6;
73623;PMS5003;61921;53.226;-1.296;2023-09-12T14:26:21;3;3;
73623;PMS5003;61921;53.226;-1.296;2023-09-12T14:28:46;4;3;
73623;PMS5003;61921;53.226;-1.296;2023-09-12T14:31:11;2;2;
73623;PMS5003;61921;53.226;-1.296;2023-09-12T14:33:37;4;4;
73623;PMS5003;61921;53.226;-1.296;2023-09-12T14:36:02;2;2;
73623;PMS5003;61921;53.226;-1.296;2023-09-12T14:38:27;3;3;
73623;PMS5003;61921;53.226;-1.296;2023-09-12T14:40:52;2;2;
73623;PMS5003;61921;53.226;-1.296;2023-09-12T14:43:17;3;3;
73623;PMS5003;61921;53.226;-1.296;2023-09-12T14:45:43;3;2;
73623;PMS5003;61921;53.226;-1.296;2023-09-12T14:48:08;3;3;
73623;PMS5003;61921;53.226;-1.296;2023-09-12T14:50:33;3;3;
73623;PMS5003;61921;53.226;-1.296;2023-09-12T14:52:58;1;1;
73623;PMS5003;61921;53.226;-1.296;2023-09-12T14:55:23;2;2;
73623;PMS5003;61921;53.226;-1.296;2023-09-12T14:57:48;2;2;
73623;PMS5003;61921;53.226;-1.296;2023-09-12T15:00:14;2;1;
73623;PMS5003;61921;53.226;-1.296;2023-09-12T15:02:39;3;3;
73623;PMS5003;61921;53.226;-1.296;2023-09-12T15:05:04;2;2;
73623;PMS5003;61921;53.226;-1.296;2023-09-12T15:07:30;3;3;
73623;PMS5003;61921;53.226;-1.296;2023-09-12T15:09:55;3;2;
73623;PMS5003;61921;53.226;-1.296;2023-09-12T15:12:20;0;0;
73623;PMS5003;61921;53.226;-1.296;2023-09-12T15:14:45;1;1;
73623;PMS5003;61921;53.226;-1.296;2023-09-12T15:17:10;1;1;
73623;PMS5003;61921;53.226;-1.296;2023-09-12T15:19:35;2;2;
73623;PMS5003;61921;53.226;-1.296;2023-09-12T15:22:01;2;1;
73623;PMS5003;61921;53.226;-1.296;2023-09-12T15:24:26;1;1;
73623;PMS5003;61921;53.226;-1.296;2023-09-12T15:26:51;1;1;
73623;PMS5003;61921;53.226;-1.296;2023-09-12T15:29:16;2;2;
73623;PMS5003;61921;53.226;-1.296;2023-09-12T15:31:42;2;2;
73623;PMS5003;61921;53.226;-1.296;2023-09-12T15:34:07;3;1;
73623;PMS5003;61921;53.226;-1.296;2023-09-12T15:36:36;4;3;
73623;PMS5003;61921;53.226;-1.296;2023-09-12T15:38:57;3;3;
73623;PMS5003;61921;53.226;-1.296;2023-09-12T15:41:22;1;1;
73623;PMS5003;61921;53.226;-1.296;2023-09-12T15:43:48;2;2;
73623;PMS5003;61921;53.226;-1.296;2023-09-12T15:46:13;3;3;
73623;PMS5003;61921;53.226;-1.296;2023-09-12T15:48:38;2;2;
73623;PMS5003;61921;53.226;-1.296;2023-09-12T15:51:04;3;2;
73623;PMS5003;61921;53.226;-1.296;2023-09-12T15:53:29;3;3;
73623;PMS5003;61921;53.226;-1.296;2023-09-12T15:55:54;2;2;
73623;PMS5003;61921;53.226;-1.296;2023-09-12T15:58:19;3;1;
73623;PMS5003;61921;53.226;-1.296;2023-09-12T16:00:44;3;3;
73623;PMS5003;61921;53.226;-1.296;2023-09-12T16:03:10;3;3;
73623;PMS5003;61921;53.226;-1.296;2023-09-12T16:05:35;2;2;
73623;PMS5003;61921;53.226;-1.296;2023-09-12T16:08:00;3;3;
73623;PMS5003;61921;53.226;-1.296;2023-09-12T16:10:25;5;3;
73623;PMS5003;61921;53.226;-1.296;2023-09-12T16:12:51;3;2;
73623;PMS5003;61921;53.226;-1.296;2023-09-12T16:15:16;4;2;
73623;PMS5003;61921;53.226;-1.296;2023-09-12T16:17:41;6;5;
73623;PMS5003;61921;53.226;-1.296;2023-09-12T16:20:06;2;2;
73623;PMS5003;61921;53.226;-1.296;2023-09-12T16:22:31;4;3;
73623;PMS5003;61921;53.226;-1.296;2023-09-12T16:24:57;5;4;
73623;PMS5003;61921;53.226;-1.296;2023-09-12T16:27:22;4;4;